Hydetown, Pennsylvania
Current Conditions -  °F | °C
As of 8:15 AM on Thursday 27 Nov 2014 (Local Time) from KFKL Reporting Station
Overcast Overcast  
Wind Chill: 25°   Ceiling: 500
Heat Index: 30°   Visibility: 5mi
Dew Point: 27°   Wind: 5mph
Humidity: 86%   Direction: 320°NW
Pressure: 30.02"   Gusts: NA
Location:  41.65°N, 79.73°W
Report Text: KFKL 271315Z AUTO 32004KT 5SM BKN005 OVC050 M01/M03 A3002 RMK AO1
Loading
Personal Weather Stations






























Interactive Weather Map New forecast layout! Learn more

10-Day Weather Forecast

Advertisements
Track Severe Weather on mobile